Time;durP1;ratioP1;P1;durP2;ratioP2;P2;SDS_P1;SDS_P2;PMS_P1;PMS_P2;Temp;Humidity;BMP_temperature;BMP_pressure;BME280_temperature;BME280_humidity;BME280_pressure;Samples;Min_cycle;Max_cycle;Signal;HPM_P1;HPM_P2
2023/10/02 00:01:23;;;;;;;13.27;8.27;;;17.70;99.90;;;;;;5064550;28;20020;-84
2023/10/02 00:04:16;;;;;;;13.50;8.73;;;17.70;99.90;;;;;;5075799;28;20024;-84
2023/10/02 00:06:36;;;;;;;13.45;8.30;;;17.70;99.90;;;;;;5083723;28;20131;-84
2023/10/02 00:09:05;;;;;;;14.98;8.65;;;17.70;99.90;;;;;;5073515;28;20031;-84
2023/10/02 00:11:45;;;;;;;14.68;8.85;;;17.70;99.90;;;;;;5075376;28;20029;-84
2023/10/02 00:14:27;;;;;;;12.75;8.27;;;17.70;99.90;;;;;;5051301;28;20058;-84
2023/10/02 00:16:59;;;;;;;13.95;8.80;;;17.70;99.90;;;;;;5063984;28;20036;-84
2023/10/02 00:19:28;;;;;;;15.05;8.65;;;17.70;99.90;;;;;;5075429;28;20078;-84
2023/10/02 00:22:03;;;;;;;13.18;8.80;;;17.70;99.90;;;;;;5092018;28;20416;-84
2023/10/02 00:24:32;;;;;;;14.55;8.77;;;17.60;99.90;;;;;;5063797;28;20054;-84
2023/10/02 00:26:58;;;;;;;15.73;9.07;;;17.60;99.90;;;;;;5062205;28;20031;-84
2023/10/02 00:29:25;;;;;;;12.30;8.32;;;17.60;99.90;;;;;;5078376;28;20077;-84
2023/10/02 00:31:51;;;;;;;11.88;7.50;;;17.60;99.90;;;;;;5078663;28;20031;-85
2023/10/02 00:34:30;;;;;;;13.55;8.15;;;17.60;99.90;;;;;;5078897;28;20452;-84
2023/10/02 00:37:05;;;;;;;13.38;8.50;;;17.60;99.90;;;;;;5092545;28;20483;-84
2023/10/02 00:39:35;;;;;;;13.88;8.35;;;17.60;99.90;;;;;;5055456;28;20035;-84
2023/10/02 00:42:22;;;;;;;13.70;7.80;;;17.50;99.90;;;;;;5073426;28;20161;-84
2023/10/02 00:50:20;;;;;;;13.98;8.32;;;17.50;99.90;;;;;;5079062;28;20036;-84
2023/10/02 00:52:59;;;;;;;13.75;8.40;;;17.50;99.90;;;;;;5067889;28;20369;-84
2023/10/02 00:55:32;;;;;;;14.43;8.27;;;17.50;99.90;;;;;;5096220;28;20141;-84
2023/10/02 00:57:59;;;;;;;13.77;7.63;;;17.50;99.90;;;;;;5077713;28;20032;-84
2023/10/02 01:00:36;;;;;;;10.93;7.70;;;17.50;99.90;;;;;;5065518;28;20423;-84
2023/10/02 01:03:09;;;;;;;16.35;7.97;;;17.40;99.90;;;;;;5072927;28;20114;-84
2023/10/02 01:05:50;;;;;;;13.13;8.02;;;17.40;99.90;;;;;;5072119;28;20380;-84
2023/10/02 01:08:24;;;;;;;11.38;7.28;;;17.40;99.90;;;;;;5075876;28;20066;-84
2023/10/02 01:10:58;;;;;;;12.63;7.80;;;17.40;99.90;;;;;;5080670;28;20121;-84
2023/10/02 01:13:35;;;;;;;11.07;7.43;;;17.40;99.90;;;;;;5057737;28;20031;-84
2023/10/02 01:16:08;;;;;;;13.32;7.70;;;17.40;99.90;;;;;;5058450;28;20029;-84
2023/10/02 01:18:35;;;;;;;12.57;7.63;;;17.40;99.90;;;;;;5052296;28;20020;-84
2023/10/02 01:21:09;;;;;;;11.60;7.57;;;17.40;99.90;;;;;;5048168;28;20048;-84
2023/10/02 01:24:08;;;;;;;10.98;7.43;;;17.40;99.90;;;;;;5095708;28;20483;-84
2023/10/02 01:26:42;;;;;;;13.23;7.85;;;17.40;99.90;;;;;;5073989;28;20041;-84
2023/10/02 01:29:13;;;;;;;12.85;8.40;;;17.40;99.90;;;;;;5077020;28;20097;-84
2023/10/02 01:31:44;;;;;;;12.55;8.43;;;17.40;99.90;;;;;;5085097;28;20099;-84
2023/10/02 01:34:12;;;;;;;14.73;8.43;;;17.30;99.90;;;;;;5075712;28;20486;-84
2023/10/02 01:36:41;;;;;;;12.35;7.63;;;17.40;99.90;;;;;;5057679;28;20059;-84
2023/10/02 01:39:14;;;;;;;13.57;8.40;;;17.40;99.90;;;;;;5076005;28;20028;-84
2023/10/02 01:41:41;;;;;;;12.43;7.85;;;17.40;99.90;;;;;;5062441;28;20016;-83
2023/10/02 01:44:10;;;;;;;12.30;8.40;;;17.30;99.90;;;;;;5100380;28;20008;-83
2023/10/02 01:46:49;;;;;;;12.63;8.35;;;17.40;99.90;;;;;;5078894;28;20028;-84
2023/10/02 01:49:27;;;;;;;14.02;7.82;;;17.40;99.90;;;;;;5087914;28;20025;-83
2023/10/02 01:52:01;;;;;;;12.70;8.50;;;17.40;99.90;;;;;;5095249;28;20024;-84
2023/10/02 01:54:29;;;;;;;11.88;7.57;;;17.40;99.90;;;;;;5079281;28;20024;-83
2023/10/02 01:56:56;;;;;;;11.88;7.03;;;17.40;99.90;;;;;;5096016;28;20111;-84
2023/10/02 01:59:24;;;;;;;11.50;7.43;;;17.40;99.90;;;;;;5080145;28;20025;-84
2023/10/02 02:01:52;;;;;;;13.77;7.78;;;17.40;99.90;;;;;;5057146;28;20035;-83
2023/10/02 02:04:27;;;;;;;11.98;7.63;;;17.40;99.90;;;;;;5074320;28;20413;-84
2023/10/02 02:06:54;;;;;;;10.43;6.93;;;17.40;99.90;;;;;;5075045;28;20063;-83
2023/10/02 02:09:24;;;;;;;17.48;8.15;;;17.40;99.90;;;;;;5056452;28;20055;-84
2023/10/02 02:12:05;;;;;;;14.00;8.32;;;17.40;99.90;;;;;;5047223;28;20025;-84
2023/10/02 02:14:51;;;;;;;11.45;7.50;;;17.40;99.90;;;;;;5057037;28;20029;-83
2023/10/02 02:17:23;;;;;;;12.32;7.82;;;17.40;99.90;;;;;;5062047;28;20020;-84
2023/10/02 02:19:49;;;;;;;12.77;8.40;;;17.40;99.90;;;;;;5058333;28;20032;-84
2023/10/02 02:22:19;;;;;;;14.68;8.68;;;17.40;99.90;;;;;;5074328;28;20025;-84
2023/10/02 02:24:46;;;;;;;13.50;8.23;;;17.40;99.90;;;;;;5065454;28;20028;-84
2023/10/02 02:27:12;;;;;;;13.82;7.72;;;17.40;99.90;;;;;;5093208;28;20051;-84
2023/10/02 02:29:38;;;;;;;13.55;8.40;;;17.40;99.90;;;;;;5041618;28;20044;-84
2023/10/02 02:32:06;;;;;;;14.13;8.98;;;17.40;99.90;;;;;;5074999;28;20483;-84
2023/10/02 02:34:32;;;;;;;15.60;8.90;;;17.30;99.90;;;;;;5076389;28;20119;-84
2023/10/02 02:36:59;;;;;;;12.82;7.90;;;17.30;99.90;;;;;;5076202;28;20470;-84
2023/10/02 02:39:27;;;;;;;14.80;8.63;;;17.30;99.90;;;;;;5059590;28;20590;-84
2023/10/02 02:44:47;;;;;;;13.20;8.60;;;17.30;99.90;;;;;;5094610;28;20031;-84
2023/10/02 02:47:15;;;;;;;15.32;8.13;;;17.30;99.90;;;;;;5075105;28;20505;-84
2023/10/02 02:49:50;;;;;;;12.40;7.90;;;17.30;99.90;;;;;;5093715;28;20020;-84
2023/10/02 02:52:17;;;;;;;11.50;7.45;;;17.30;99.90;;;;;;5093796;28;20024;-84
2023/10/02 02:54:47;;;;;;;14.98;8.15;;;17.20;99.90;;;;;;5072147;28;20484;-84
2023/10/02 02:57:15;;;;;;;13.55;7.95;;;17.20;99.90;;;;;;5059691;28;20028;-84
2023/10/02 02:59:40;;;;;;;12.93;8.10;;;17.20;99.90;;;;;;5074557;28;20028;-84
2023/10/02 03:02:09;;;;;;;13.23;8.23;;;17.20;99.90;;;;;;5059063;28;20070;-83
2023/10/02 03:04:38;;;;;;;13.40;8.02;;;17.20;99.90;;;;;;5043178;28;20024;-84
2023/10/02 03:07:09;;;;;;;12.75;7.95;;;17.20;99.90;;;;;;5093692;28;20115;-84
2023/10/02 03:09:36;;;;;;;12.52;7.88;;;17.20;99.90;;;;;;5069717;28;20077;-84
2023/10/02 03:12:05;;;;;;;11.75;7.80;;;17.10;99.90;;;;;;5073740;28;20047;-84
2023/10/02 03:14:33;;;;;;;14.93;8.07;;;17.10;99.90;;;;;;5048789;28;20107;-84
2023/10/02 03:17:22;;;;;;;12.55;8.05;;;17.10;99.90;;;;;;5075810;28;20080;-84
2023/10/02 03:19:45;;;;;;;13.23;8.00;;;17.10;99.90;;;;;;5073201;28;20115;-84
2023/10/02 03:22:11;;;;;;;13.13;7.55;;;17.10;99.90;;;;;;5083802;28;20106;-84
2023/10/02 03:24:39;;;;;;;11.77;7.22;;;17.10;99.90;;;;;;5059695;28;20375;-84
2023/10/02 03:27:08;;;;;;;13.77;7.82;;;17.00;99.90;;;;;;5095825;28;20123;-84
2023/10/02 03:29:34;;;;;;;13.38;8.23;;;17.00;99.90;;;;;;5082018;28;20078;-85
2023/10/02 03:32:04;;;;;;;13.57;7.93;;;17.00;99.90;;;;;;5083713;28;20031;-84
2023/10/02 03:34:33;;;;;;;11.02;7.60;;;17.00;99.90;;;;;;5100490;28;20028;-83
2023/10/02 03:39:59;;;;;;;13.38;8.60;;;17.00;99.90;;;;;;5108418;28;20044;-85
2023/10/02 03:42:31;;;;;;;13.75;8.10;;;17.00;99.90;;;;;;5071800;28;20039;-84
2023/10/02 03:44:58;;;;;;;12.40;8.05;;;17.00;99.90;;;;;;5040058;28;20107;-84
2023/10/02 03:47:33;;;;;;;12.93;8.48;;;17.00;99.90;;;;;;5079192;28;20054;-84
2023/10/02 03:50:03;;;;;;;13.00;8.10;;;17.00;99.90;;;;;;5093542;28;20371;-84
2023/10/02 03:52:31;;;;;;;12.10;8.13;;;16.90;99.90;;;;;;5092669;28;20392;-84
2023/10/02 03:54:57;;;;;;;12.95;7.85;;;17.00;99.90;;;;;;5067083;28;20020;-84
2023/10/02 04:00:40;;;;;;;12.63;7.85;;;16.90;99.90;;;;;;5020899;28;20029;-85
2023/10/02 04:03:08;;;;;;;12.80;8.00;;;16.90;99.90;;;;;;5042825;28;20071;-84
2023/10/02 04:05:43;;;;;;;12.88;7.97;;;16.90;99.90;;;;;;5042691;28;20477;-84
2023/10/02 04:08:14;;;;;;;14.90;8.60;;;16.80;99.90;;;;;;5047620;28;20032;-84
2023/10/02 04:10:56;;;;;;;16.70;8.32;;;16.80;99.90;;;;;;5094857;28;20028;-84
2023/10/02 04:13:38;;;;;;;12.35;7.65;;;16.80;99.90;;;;;;5066315;28;20396;-84
2023/10/02 04:18:49;;;;;;;12.05;7.45;;;16.80;99.90;;;;;;5082076;28;20392;-84
2023/10/02 04:21:22;;;;;;;13.82;8.30;;;16.80;99.90;;;;;;5078862;28;20035;-84
2023/10/02 04:23:52;;;;;;;13.43;8.10;;;16.80;99.90;;;;;;5079253;28;20047;-84
2023/10/02 04:26:23;;;;;;;14.63;7.95;;;16.80;99.90;;;;;;5077903;28;20047;-84
2023/10/02 04:28:58;;;;;;;14.00;8.50;;;16.80;99.90;;;;;;5076190;28;20044;-84
2023/10/02 04:31:34;;;;;;;13.50;8.18;;;16.80;99.90;;;;;;5089972;28;20099;-83
2023/10/02 04:36:44;;;;;;;11.80;7.30;;;16.70;99.90;;;;;;5076789;28;20035;-83
2023/10/02 04:42:25;;;;;;;13.25;8.05;;;16.70;99.90;;;;;;5061338;28;20083;-83
2023/10/02 04:44:58;;;;;;;13.50;8.18;;;16.70;99.90;;;;;;5058492;28;20054;-84
2023/10/02 04:47:26;;;;;;;13.65;8.43;;;16.70;99.90;;;;;;5063492;28;20032;-84
2023/10/02 04:52:56;;;;;;;15.57;9.38;;;16.70;99.90;;;;;;5082385;28;20086;-84
2023/10/02 04:55:41;;;;;;;14.93;8.75;;;16.80;99.90;;;;;;5085128;28;20017;-84
2023/10/02 04:58:14;;;;;;;14.30;8.45;;;16.70;99.90;;;;;;5064861;28;20036;-84
2023/10/02 05:03:32;;;;;;;12.57;8.18;;;16.70;99.90;;;;;;5079074;28;20067;-84
2023/10/02 05:05:58;;;;;;;14.63;8.43;;;16.70;99.90;;;;;;5066153;28;20060;-84
2023/10/02 05:16:14;;;;;;;13.80;8.05;;;16.60;99.90;;;;;;5087466;28;20051;-83
2023/10/02 05:18:47;;;;;;;12.93;8.07;;;16.70;99.90;;;;;;5056036;28;20461;-84
2023/10/02 05:21:17;;;;;;;11.98;7.82;;;16.70;99.90;;;;;;5082431;28;20021;-83
2023/10/02 05:24:02;;;;;;;13.63;7.70;;;16.60;99.90;;;;;;5078179;28;20062;-82
2023/10/02 05:26:39;;;;;;;16.23;9.07;;;16.60;99.90;;;;;;5097598;28;20460;-82
2023/10/02 05:29:06;;;;;;;13.75;8.60;;;16.60;99.90;;;;;;5063663;28;20415;-82
2023/10/02 05:31:36;;;;;;;15.85;8.70;;;16.60;99.90;;;;;;5061497;28;20111;-82
2023/10/02 05:34:13;;;;;;;15.52;8.57;;;16.60;99.90;;;;;;5077920;28;20052;-83
2023/10/02 05:39:39;;;;;;;17.15;9.80;;;16.60;99.90;;;;;;5049308;28;20048;-83
2023/10/02 05:42:14;;;;;;;15.73;8.77;;;16.70;99.90;;;;;;5053293;28;20380;-83
2023/10/02 05:44:43;;;;;;;16.63;9.25;;;16.70;99.90;;;;;;5078650;28;20039;-83
2023/10/02 05:47:09;;;;;;;14.75;9.05;;;16.70;99.90;;;;;;5061022;28;20047;-83
2023/10/02 05:49:37;;;;;;;18.10;9.63;;;16.70;99.90;;;;;;5094718;28;20495;-84
2023/10/02 05:52:07;;;;;;;16.55;10.18;;;16.70;99.90;;;;;;5062886;28;20361;-83
2023/10/02 05:54:36;;;;;;;16.70;9.23;;;16.80;99.90;;;;;;5063574;28;20024;-83
2023/10/02 05:57:09;;;;;;;17.75;9.82;;;16.80;99.90;;;;;;5068280;28;20468;-83
2023/10/02 05:59:45;;;;;;;16.58;9.77;;;16.80;99.90;;;;;;5081103;28;20036;-83
2023/10/02 06:02:19;;;;;;;18.85;9.98;;;16.80;99.90;;;;;;5058991;28;20434;-82
2023/10/02 06:04:49;;;;;;;14.50;8.95;;;16.90;99.90;;;;;;5060408;28;20033;-83
2023/10/02 06:07:40;;;;;;;16.50;9.45;;;16.90;99.90;;;;;;5091191;28;20056;-82
2023/10/02 06:10:24;;;;;;;15.50;9.52;;;16.90;99.90;;;;;;5067323;28;20020;-83
2023/10/02 06:12:50;;;;;;;18.67;9.40;;;16.90;99.90;;;;;;5071210;28;20097;-82
2023/10/02 06:16:03;;;;;;;30.15;11.55;;;16.90;99.90;;;;;;5067985;28;20052;-83
2023/10/02 06:18:02;;;;;;;27.75;12.18;;;16.90;99.90;;;;;;5053648;28;20039;-83
2023/10/02 06:20:28;;;;;;;31.60;12.27;;;17.00;99.90;;;;;;5059946;28;20414;-82
2023/10/02 06:23:05;;;;;;;24.42;10.13;;;17.00;99.90;;;;;;5065686;28;20071;-83
2023/10/02 06:25:31;;;;;;;19.25;10.52;;;17.00;99.90;;;;;;5041961;28;20123;-83
2023/10/02 06:28:19;;;;;;;18.25;9.60;;;17.00;99.90;;;;;;5069966;28;20460;-83
2023/10/02 06:30:43;;;;;;;17.45;10.13;;;17.00;99.90;;;;;;5079090;28;20025;-83
2023/10/02 06:33:10;;;;;;;16.92;9.65;;;17.10;99.90;;;;;;5043625;28;20419;-83
2023/10/02 06:35:44;;;;;;;15.82;9.60;;;17.10;99.90;;;;;;5076203;28;20111;-82
2023/10/02 06:38:16;;;;;;;18.08;10.00;;;17.10;99.90;;;;;;5077619;28;20054;-83
2023/10/02 06:40:55;;;;;;;16.65;9.90;;;17.20;99.90;;;;;;5072168;28;20063;-83
2023/10/02 06:43:32;;;;;;;17.75;10.32;;;17.20;99.90;;;;;;5061386;28;20419;-82
2023/10/02 06:46:18;;;;;;;15.63;9.43;;;17.20;99.90;;;;;;5073957;28;20025;-82
2023/10/02 06:48:46;;;;;;;15.18;9.77;;;17.30;99.90;;;;;;5073838;28;20036;-83
2023/10/02 06:51:16;;;;;;;16.05;10.15;;;17.30;99.90;;;;;;5056211;28;20025;-83
2023/10/02 06:53:43;;;;;;;16.30;9.70;;;17.30;99.90;;;;;;5056084;28;20047;-83
2023/10/02 06:56:12;;;;;;;16.17;9.32;;;17.40;99.90;;;;;;5040998;28;20027;-83
2023/10/02 06:58:56;;;;;;;14.80;9.57;;;17.50;99.90;;;;;;5056457;28;20068;-83
2023/10/02 07:01:27;;;;;;;14.75;9.35;;;17.50;99.90;;;;;;5057858;28;20017;-83
2023/10/02 07:03:53;;;;;;;16.83;9.93;;;17.60;99.90;;;;;;5076196;28;20032;-83
2023/10/02 07:06:24;;;;;;;15.57;8.95;;;17.60;99.90;;;;;;5071953;28;20051;-83
2023/10/02 07:09:10;;;;;;;16.55;9.40;;;17.60;99.90;;;;;;5117914;28;20075;-79
2023/10/02 07:11:42;;;;;;;15.02;9.43;;;17.60;99.90;;;;;;5118863;28;20028;-81
2023/10/02 07:14:11;;;;;;;15.88;9.27;;;17.80;99.90;;;;;;5088157;28;20012;-81
2023/10/02 07:16:37;;;;;;;14.95;9.60;;;17.70;99.90;;;;;;5076046;28;20108;-82
2023/10/02 07:19:07;;;;;;;16.38;9.27;;;17.80;99.90;;;;;;5074086;28;20033;-83
2023/10/02 07:21:35;;;;;;;16.02;9.38;;;17.90;99.90;;;;;;5091930;28;20086;-83
2023/10/02 07:24:19;;;;;;;16.30;9.43;;;18.00;99.90;;;;;;5093184;28;20020;-82
2023/10/02 07:26:51;;;;;;;15.98;9.52;;;18.00;99.90;;;;;;5055469;28;20032;-83
2023/10/02 07:29:19;;;;;;;16.88;10.02;;;18.10;99.90;;;;;;5043847;28;20048;-83
2023/10/02 07:31:45;;;;;;;17.10;9.60;;;18.20;99.90;;;;;;5059078;28;20020;-83
2023/10/02 07:34:15;;;;;;;16.60;9.85;;;18.20;99.90;;;;;;5093243;28;20020;-83
2023/10/02 07:36:44;;;;;;;16.10;9.13;;;18.30;99.90;;;;;;5093288;28;20161;-83
2023/10/02 07:42:00;;;;;;;16.52;10.05;;;18.40;99.90;;;;;;5057885;28;20065;-83
2023/10/02 07:44:38;;;;;;;16.70;10.40;;;18.40;99.90;;;;;;5058161;28;20034;-83
2023/10/02 07:47:10;;;;;;;16.48;9.50;;;18.50;99.90;;;;;;5076655;28;20040;-83
2023/10/02 07:49:40;;;;;;;14.80;9.23;;;18.60;99.90;;;;;;5076658;28;20028;-83
2023/10/02 07:52:11;;;;;;;16.67;9.25;;;18.70;99.90;;;;;;5074524;28;20115;-83
2023/10/02 07:54:48;;;;;;;17.60;9.60;;;18.70;99.90;;;;;;5054983;28;20033;-83
2023/10/02 07:57:14;;;;;;;15.52;9.55;;;18.80;99.90;;;;;;5056859;28;20040;-83
2023/10/02 07:59:43;;;;;;;17.55;10.20;;;18.90;99.90;;;;;;5073456;28;20028;-83
2023/10/02 08:02:21;;;;;;;19.92;10.18;;;18.90;99.90;;;;;;5038742;28;20385;-83
2023/10/02 08:04:48;;;;;;;17.83;10.05;;;19.00;99.90;;;;;;5057456;28;20022;-83
2023/10/02 08:07:14;;;;;;;17.67;10.23;;;19.10;99.90;;;;;;5058149;28;20037;-83
2023/10/02 08:09:47;;;;;;;17.92;9.77;;;19.10;99.90;;;;;;5075037;28;20020;-83
2023/10/02 08:12:33;;;;;;;16.48;10.23;;;19.20;99.90;;;;;;5060853;28;20107;-83
2023/10/02 08:18:16;;;;;;;17.08;9.85;;;19.30;99.90;;;;;;5046181;28;20071;-83
2023/10/02 08:20:43;;;;;;;18.85;10.23;;;19.30;99.90;;;;;;5074854;28;20021;-83
2023/10/02 08:23:21;;;;;;;17.45;10.70;;;19.40;99.90;;;;;;5092936;28;20518;-83
2023/10/02 08:26:03;;;;;;;18.02;10.30;;;19.40;99.90;;;;;;5074864;28;20126;-82
2023/10/02 08:28:33;;;;;;;17.85;10.25;;;19.40;99.90;;;;;;5074621;28;20048;-83
2023/10/02 08:31:00;;;;;;;15.03;9.40;;;19.50;99.90;;;;;;5072136;28;20052;-83
2023/10/02 08:33:26;;;;;;;16.88;10.05;;;19.50;99.90;;;;;;5070756;28;20451;-83
2023/10/02 08:35:54;;;;;;;17.65;9.77;;;19.50;99.90;;;;;;5076367;28;20051;-83
2023/10/02 08:38:22;;;;;;;17.48;10.35;;;19.50;99.90;;;;;;5072880;28;20024;-83
2023/10/02 08:40:57;;;;;;;18.65;11.00;;;19.60;99.90;;;;;;5049745;28;20032;-83
2023/10/02 08:43:29;;;;;;;16.55;9.98;;;19.60;99.90;;;;;;5059438;28;20118;-83
2023/10/02 08:45:56;;;;;;;17.33;10.25;;;19.60;99.90;;;;;;5050398;28;20028;-83
2023/10/02 08:48:25;;;;;;;17.42;10.30;;;19.70;99.90;;;;;;5042591;28;20029;-83
2023/10/02 08:50:57;;;;;;;16.50;10.73;;;19.70;99.90;;;;;;5076135;28;20032;-83
2023/10/02 08:53:23;;;;;;;15.95;9.98;;;19.80;99.90;;;;;;5059257;28;20028;-83
2023/10/02 08:56:10;;;;;;;17.60;10.43;;;19.80;99.90;;;;;;5080292;28;20033;-84
2023/10/02 08:58:36;;;;;;;17.08;10.02;;;19.90;99.90;;;;;;5084279;28;20024;-83
2023/10/02 09:03:41;;;;;;;17.75;10.60;;;20.00;99.90;;;;;;5108633;28;20047;-82
2023/10/02 09:06:28;;;;;;;18.48;10.45;;;20.00;99.90;;;;;;5098782;28;20012;-82
2023/10/02 09:11:38;;;;;;;19.15;10.75;;;20.10;99.90;;;;;;5094104;28;20495;-83
2023/10/02 09:16:47;;;;;;;20.67;11.48;;;20.20;99.90;;;;;;5080330;28;20194;-83
2023/10/02 09:19:30;;;;;;;18.88;11.30;;;20.20;99.90;;;;;;5041233;28;20126;-83
2023/10/02 09:22:06;;;;;;;17.50;10.88;;;20.20;99.90;;;;;;5075936;28;20111;-84
2023/10/02 09:24:36;;;;;;;17.50;10.80;;;20.30;99.90;;;;;;5078262;28;20035;-83
2023/10/02 09:29:49;;;;;;;17.60;10.65;;;20.40;99.90;;;;;;5093988;28;20673;-83
2023/10/02 09:32:25;;;;;;;18.67;10.57;;;20.30;99.90;;;;;;5091448;28;20058;-83
2023/10/02 09:35:11;;;;;;;16.42;9.98;;;20.40;99.90;;;;;;5062087;28;20025;-83
2023/10/02 09:37:38;;;;;;;19.35;10.75;;;20.40;99.90;;;;;;5079296;28;20039;-83
2023/10/02 09:40:17;;;;;;;18.30;10.98;;;20.50;99.90;;;;;;5060338;28;20020;-83
2023/10/02 09:42:48;;;;;;;19.40;10.90;;;20.50;99.90;;;;;;5095549;28;20138;-83
2023/10/02 09:45:30;;;;;;;20.00;10.52;;;20.60;99.90;;;;;;5070052;28;20412;-83
2023/10/02 09:47:59;;;;;;;19.23;11.20;;;20.60;99.90;;;;;;5057239;28;20456;-83
2023/10/02 09:50:29;;;;;;;19.75;11.02;;;20.60;99.90;;;;;;5075484;28;20025;-83
2023/10/02 09:53:02;;;;;;;18.08;10.85;;;20.70;99.90;;;;;;5075340;28;20123;-83
2023/10/02 09:55:47;;;;;;;15.68;10.05;;;20.70;99.90;;;;;;5057256;28;20021;-83
2023/10/02 09:58:28;;;;;;;18.67;11.48;;;20.70;99.90;;;;;;5056577;28;20028;-83
2023/10/02 10:03:52;;;;;;;17.92;9.93;;;20.80;99.90;;;;;;5082425;28;20040;-83
2023/10/02 10:06:27;;;;;;;19.52;11.40;;;20.90;99.90;;;;;;5075007;28;20032;-83
2023/10/02 10:11:43;;;;;;;17.50;10.30;;;20.90;99.90;;;;;;5074686;28;20110;-83
2023/10/02 10:14:36;;;;;;;15.95;10.32;;;20.90;99.90;;;;;;5056549;28;20111;-83
2023/10/02 10:17:15;;;;;;;16.90;11.02;;;20.90;99.90;;;;;;5076744;28;20372;-83
2023/10/02 10:22:41;;;;;;;16.08;10.30;;;21.00;99.90;;;;;;5074672;28;20034;-83
2023/10/02 10:27:41;;;;;;;17.48;10.93;;;21.10;99.90;;;;;;5074290;28;20388;-83
2023/10/02 10:30:20;;;;;;;16.30;10.50;;;21.20;99.90;;;;;;5056010;28;20049;-83
2023/10/02 10:32:46;;;;;;;17.00;10.32;;;21.20;99.90;;;;;;5056432;28;20154;-83
2023/10/02 10:35:55;;;;;;;17.30;10.82;;;21.20;99.90;;;;;;5041523;28;20050;-83
2023/10/02 10:41:00;;;;;;;16.70;10.98;;;21.30;99.90;;;;;;5092629;28;20105;-83
2023/10/02 10:43:43;;;;;;;16.50;9.77;;;21.40;99.90;;;;;;5074449;28;20052;-83
2023/10/02 10:46:31;;;;;;;17.65;11.13;;;21.40;99.90;;;;;;5075262;28;20092;-84
2023/10/02 10:49:52;;;;;;;20.90;10.80;;;21.50;99.90;;;;;;5076711;28;20023;-83
2023/10/02 10:51:53;;;;;;;17.92;10.43;;;21.50;99.90;;;;;;5079119;28;20833;-83
2023/10/02 10:54:22;;;;;;;19.10;10.60;;;21.60;99.90;;;;;;5101361;28;20012;-83
2023/10/02 10:57:21;;;;;;;16.50;10.50;;;21.60;99.90;;;;;;5118527;28;20019;-84
2023/10/02 11:00:23;;;;;;;14.90;9.75;;;21.60;99.90;;;;;;5081135;28;20032;-83
2023/10/02 11:02:54;;;;;;;;;;;21.70;99.90;;;;;;5089880;28;20033;-83
2023/10/02 11:05:22;;;;;;;14.98;9.80;;;21.80;99.90;;;;;;5056620;28;19904;-83
2023/10/02 11:07:47;;;;;;;14.60;9.43;;;21.80;99.90;;;;;;5039632;28;20028;-83
2023/10/02 11:10:19;;;;;;;16.48;9.25;;;21.90;99.90;;;;;;5055181;28;20083;-83
2023/10/02 11:13:00;;;;;;;16.77;9.77;;;21.90;99.90;;;;;;5056817;28;20104;-84
2023/10/02 11:15:46;;;;;;;15.20;8.35;;;21.90;99.90;;;;;;5055545;28;20043;-84
2023/10/02 11:18:23;;;;;;;16.92;9.32;;;22.00;99.90;;;;;;5073361;28;20086;-83
2023/10/02 11:20:54;;;;;;;12.90;8.82;;;22.10;99.90;;;;;;5070123;28;20081;-84
2023/10/02 11:23:43;;;;;;;15.55;9.43;;;22.10;99.90;;;;;;5075191;28;20055;-83
2023/10/02 11:26:21;;;;;;;17.10;9.90;;;22.20;99.90;;;;;;5059398;28;20028;-84
2023/10/02 11:28:50;;;;;;;16.83;9.65;;;22.20;99.90;;;;;;5041351;28;20048;-84
2023/10/02 11:31:29;;;;;;;16.60;9.85;;;22.20;99.90;;;;;;5063177;28;20048;-83
2023/10/02 11:34:00;;;;;;;16.30;9.82;;;22.30;99.90;;;;;;5055226;28;20021;-83
2023/10/02 11:36:28;;;;;;;;;;;22.30;99.90;;;;;;5055526;28;20059;-83
2023/10/02 11:38:55;;;;;;;15.20;9.20;;;22.40;99.90;;;;;;5054448;28;20409;-83
2023/10/02 11:41:21;;;;;;;14.18;9.63;;;22.40;99.90;;;;;;5075217;28;20024;-83
2023/10/02 11:43:48;;;;;;;16.52;9.43;;;22.40;99.90;;;;;;5075049;28;20020;-83
2023/10/02 11:46:14;;;;;;;15.88;8.77;;;22.40;99.90;;;;;;5046275;28;20090;-84
2023/10/02 11:48:40;;;;;;;13.65;8.88;;;22.40;99.90;;;;;;5062732;28;20024;-83
2023/10/02 11:51:07;;;;;;;14.25;8.02;;;22.50;99.90;;;;;;5067004;28;20028;-83
2023/10/02 11:53:33;;;;;;;12.18;7.85;;;22.60;99.90;;;;;;5054917;28;20023;-84
2023/10/02 11:55:58;;;;;;;17.90;8.25;;;22.50;99.90;;;;;;5038524;28;20024;-84
2023/10/02 11:58:24;;;;;;;14.35;8.13;;;22.60;99.90;;;;;;5072476;28;20028;-83
2023/10/02 12:00:50;;;;;;;13.75;7.93;;;22.60;99.90;;;;;;5038700;28;20020;-84
2023/10/02 12:03:18;;;;;;;14.40;8.30;;;22.60;99.90;;;;;;5072523;28;20392;-83
2023/10/02 12:05:43;;;;;;;14.27;8.50;;;22.60;99.90;;;;;;5075010;28;20177;-84
2023/10/02 12:08:09;;;;;;;14.55;8.45;;;22.70;99.90;;;;;;5051292;28;20115;-84
2023/10/02 12:10:39;;;;;;;12.52;8.13;;;22.70;99.90;;;;;;5072799;28;20047;-83
2023/10/02 12:13:06;;;;;;;14.52;8.68;;;22.70;99.90;;;;;;5075749;28;20021;-84
2023/10/02 12:15:31;;;;;;;13.25;8.45;;;22.80;99.90;;;;;;5072142;28;20043;-83
2023/10/02 12:17:57;;;;;;;15.35;8.45;;;22.80;99.90;;;;;;5073343;28;20037;-84
2023/10/02 12:20:25;;;;;;;14.40;8.77;;;22.80;99.90;;;;;;5047236;28;20364;-84
2023/10/02 12:22:50;;;;;;;16.30;9.20;;;22.90;99.90;;;;;;5073530;28;20437;-83
2023/10/02 12:25:16;;;;;;;13.32;8.55;;;22.90;99.90;;;;;;5073056;28;20021;-84
2023/10/02 12:27:42;;;;;;;14.45;8.98;;;22.90;99.90;;;;;;5076422;28;20028;-83
2023/10/02 12:30:11;;;;;;;14.02;9.15;;;22.90;99.90;;;;;;5058296;28;20059;-83
2023/10/02 12:32:38;;;;;;;14.75;9.32;;;22.90;99.90;;;;;;5043026;28;20104;-83
2023/10/02 12:35:05;;;;;;;13.73;8.77;;;22.90;99.90;;;;;;5058833;28;20029;-84
2023/10/02 12:37:32;;;;;;;14.77;9.27;;;22.90;99.90;;;;;;5058707;28;20475;-83
2023/10/02 12:39:58;;;;;;;15.80;9.63;;;22.90;99.90;;;;;;5060783;28;20048;-84
2023/10/02 12:42:25;;;;;;;15.25;9.43;;;23.00;99.90;;;;;;5054386;28;20021;-84
2023/10/02 12:44:52;;;;;;;13.85;8.68;;;23.00;99.90;;;;;;5081730;28;20028;-83
2023/10/02 12:47:18;;;;;;;15.05;9.13;;;23.10;99.90;;;;;;5065665;28;20045;-84
2023/10/02 12:49:43;;;;;;;16.30;10.38;;;23.10;99.90;;;;;;5096813;28;20009;-84
2023/10/02 12:52:11;;;;;;;15.18;9.48;;;23.10;99.90;;;;;;5056234;28;20016;-83
2023/10/02 12:54:37;;;;;;;14.93;9.75;;;23.10;99.90;;;;;;5067410;28;20032;-82
2023/10/02 12:57:05;;;;;;;15.15;9.57;;;23.20;99.90;;;;;;5065085;28;20040;-83
2023/10/02 12:59:30;;;;;;;15.68;9.27;;;23.20;99.90;;;;;;5084784;28;20058;-84
2023/10/02 13:01:56;;;;;;;14.82;9.27;;;23.20;99.90;;;;;;5068836;28;20028;-83
2023/10/02 13:04:23;;;;;;;15.75;9.20;;;23.20;99.90;;;;;;5045329;28;20122;-83
2023/10/02 13:06:49;;;;;;;16.63;9.88;;;23.20;99.90;;;;;;5065765;28;20082;-84
2023/10/02 13:09:15;;;;;;;15.50;9.60;;;23.30;99.90;;;;;;5042060;28;20033;-84
2023/10/02 13:11:44;;;;;;;17.70;9.88;;;23.20;99.90;;;;;;5063916;28;20790;-84
2023/10/02 13:14:16;;;;;;;15.13;9.50;;;23.20;99.90;;;;;;5066645;28;20161;-84
2023/10/02 13:16:42;;;;;;;16.30;10.02;;;23.20;99.90;;;;;;5045920;28;20106;-84
2023/10/02 13:19:09;;;;;;;16.67;10.43;;;23.20;99.90;;;;;;5094049;28;20048;-84
2023/10/02 13:21:42;;;;;;;16.95;10.40;;;23.30;99.90;;;;;;5057750;28;20101;-84
2023/10/02 13:24:15;;;;;;;17.38;10.90;;;23.30;99.90;;;;;;5074203;28;20028;-84
2023/10/02 13:26:41;;;;;;;17.40;11.00;;;23.30;99.90;;;;;;5068909;28;20068;-83
2023/10/02 13:29:07;;;;;;;16.80;10.85;;;23.30;99.90;;;;;;5054003;28;20494;-84
2023/10/02 13:31:33;;;;;;;18.45;11.20;;;23.40;99.90;;;;;;5036729;28;20040;-84
2023/10/02 13:34:00;;;;;;;19.85;11.00;;;23.40;99.90;;;;;;5054358;28;20029;-84
2023/10/02 13:36:27;;;;;;;19.17;11.55;;;23.40;99.90;;;;;;5047625;28;20017;-84
2023/10/02 13:38:57;;;;;;;16.73;10.68;;;23.40;99.90;;;;;;5065601;28;20083;-84
2023/10/02 13:41:24;;;;;;;;;;;23.40;99.90;;;;;;5054584;28;20350;-84
2023/10/02 13:43:52;;;;;;;17.55;10.60;;;23.40;99.90;;;;;;5053508;28;19940;-84
2023/10/02 13:46:20;;;;;;;17.20;10.45;;;23.40;99.90;;;;;;5045280;28;20021;-83
2023/10/02 13:48:53;;;;;;;18.45;10.48;;;23.40;99.90;;;;;;5037222;28;20512;-84
2023/10/02 13:51:21;;;;;;;15.80;9.77;;;23.50;99.90;;;;;;5065825;28;20509;-83
2023/10/02 13:53:47;;;;;;;14.30;8.73;;;23.50;99.90;;;;;;5070489;28;20031;-84
2023/10/02 13:56:19;;;;;;;14.52;8.77;;;23.50;99.90;;;;;;5055789;28;20029;-84
2023/10/02 13:58:50;;;;;;;16.55;9.05;;;23.50;99.90;;;;;;5073338;28;20033;-84
2023/10/02 14:01:19;;;;;;;15.68;9.48;;;23.50;99.90;;;;;;5057838;28;20031;-84
2023/10/02 14:03:45;;;;;;;13.52;8.70;;;23.50;99.90;;;;;;5057192;28;20127;-84
2023/10/02 14:06:13;;;;;;;16.98;10.48;;;23.50;99.90;;;;;;5054696;28;20377;-83
2023/10/02 14:08:40;;;;;;;15.27;9.50;;;23.50;99.90;;;;;;5064131;28;20024;-84